createdAt,value
2018-09-25T00:00:19.557Z,66.10
2018-09-25T00:02:52.712Z,66.50
2018-09-25T00:05:25.785Z,66.90
2018-09-25T00:07:59.985Z,66.80
2018-09-25T00:10:34.022Z,67.60
2018-09-25T00:13:07.281Z,67.10
2018-09-25T00:15:40.587Z,67.30
2018-09-25T00:18:14.845Z,67.60
2018-09-25T00:20:48.042Z,67.60
2018-09-25T00:23:21.229Z,67.70
2018-09-25T00:25:54.416Z,67.90
2018-09-25T00:28:27.573Z,68.00
2018-09-25T00:31:00.781Z,68.40
2018-09-25T00:33:34.000Z,68.40
2018-09-25T00:36:07.188Z,68.50
2018-09-25T00:38:40.349Z,68.40
2018-09-25T00:41:14.610Z,68.40
2018-09-25T00:43:47.749Z,68.40
2018-09-25T00:46:21.977Z,67.20
2018-09-25T00:48:55.169Z,66.40
2018-09-25T00:51:28.348Z,66.20
2018-09-25T00:54:01.579Z,65.50
2018-09-25T00:56:34.704Z,64.70
2018-09-25T00:59:07.869Z,64.10
2018-09-25T01:01:41.017Z,63.40
2018-09-25T01:04:14.157Z,63.00
2018-09-25T01:06:47.401Z,62.50
2018-09-25T01:09:20.666Z,62.00
2018-09-25T01:11:53.792Z,61.70
2018-09-25T01:14:27.021Z,61.80
2018-09-25T01:17:00.172Z,61.60
2018-09-25T01:19:33.393Z,61.40
2018-09-25T01:22:06.552Z,61.70
2018-09-25T01:24:39.765Z,61.60
2018-09-25T01:27:12.936Z,61.90
2018-09-25T01:29:46.121Z,61.60
2018-09-25T01:32:19.321Z,62.10
2018-09-25T01:34:52.525Z,61.60
2018-09-25T01:37:25.696Z,60.60
2018-09-25T01:39:58.915Z,61.60
2018-09-25T01:42:32.088Z,61.50
2018-09-25T01:45:05.273Z,61.70
2018-09-25T01:47:38.378Z,62.90
2018-09-25T01:50:11.611Z,62.40
2018-09-25T01:52:44.953Z,62.40
2018-09-25T01:55:18.257Z,62.60
2018-09-25T01:57:51.436Z,63.30
2018-09-25T02:00:24.621Z,63.70
2018-09-25T02:02:57.865Z,63.70
2018-09-25T02:05:31.120Z,63.50
2018-09-25T02:08:04.329Z,63.70
2018-09-25T02:10:37.414Z,63.80
2018-09-25T02:13:10.632Z,65.20
2018-09-25T02:15:43.809Z,65.60
2018-09-25T02:18:17.115Z,65.80
2018-09-25T02:20:50.357Z,65.40
2018-09-25T02:23:23.561Z,66.10
2018-09-25T02:25:56.740Z,65.70
2018-09-25T02:28:29.941Z,66.60
2018-09-25T02:31:03.045Z,65.50
2018-09-25T02:33:36.266Z,65.50
2018-09-25T02:36:09.389Z,66.00
2018-09-25T02:38:42.425Z,65.70
2018-09-25T02:41:15.612Z,66.00
2018-09-25T02:43:48.832Z,66.00
2018-09-25T02:46:21.953Z,65.80
2018-09-25T02:48:55.193Z,66.00
2018-09-25T02:51:28.405Z,66.20
2018-09-25T02:54:01.837Z,66.30
2018-09-25T02:56:36.173Z,66.30
2018-09-25T02:59:09.533Z,66.30
2018-09-25T03:01:42.705Z,66.50
2018-09-25T03:04:15.869Z,66.60
2018-09-25T03:06:49.061Z,66.50
2018-09-25T03:09:22.240Z,66.60
2018-09-25T03:11:55.464Z,66.30
2018-09-25T03:14:28.623Z,66.80
2018-09-25T03:17:01.855Z,66.80
2018-09-25T03:19:35.000Z,67.20
2018-09-25T03:22:09.141Z,67.60
2018-09-25T03:24:42.314Z,67.80
2018-09-25T03:27:16.592Z,67.80
2018-09-25T03:29:49.693Z,67.70
2018-09-25T03:32:22.914Z,67.60
2018-09-25T03:34:56.152Z,67.90
2018-09-25T03:37:29.389Z,68.00
2018-09-25T03:40:02.536Z,67.40
2018-09-25T03:42:35.823Z,67.20
2018-09-25T03:45:10.157Z,67.30
2018-09-25T03:47:43.285Z,67.00
2018-09-25T03:50:16.393Z,67.30
2018-09-25T03:52:50.516Z,67.50
2018-09-25T03:55:23.752Z,67.20
2018-09-25T03:57:56.780Z,66.60
2018-09-25T04:00:30.165Z,66.40
2018-09-25T04:03:03.365Z,65.80
2018-09-25T04:05:36.593Z,65.80
2018-09-25T04:08:09.720Z,65.50
2018-09-25T04:10:43.025Z,65.50
2018-09-25T04:13:16.381Z,65.50
2018-09-25T04:15:49.531Z,65.50
2018-09-25T04:18:22.729Z,65.50
2018-09-25T04:20:56.833Z,65.20
2018-09-25T04:23:30.072Z,66.30
2018-09-25T04:26:03.314Z,64.70
2018-09-25T04:28:36.525Z,64.70
2018-09-25T04:31:09.761Z,65.10
2018-09-25T04:33:42.891Z,65.50
2018-09-25T04:36:16.258Z,66.10
2018-09-25T04:38:49.372Z,66.30
2018-09-25T04:41:22.482Z,66.60
2018-09-25T04:43:55.663Z,66.80
2018-09-25T04:46:28.794Z,66.70
2018-09-25T04:49:02.050Z,66.80
2018-09-25T04:51:35.249Z,67.00
2018-09-25T04:54:09.484Z,67.90
2018-09-25T04:56:42.644Z,67.20
2018-09-25T04:59:15.981Z,68.20
2018-09-25T05:01:49.121Z,67.50
2018-09-25T05:04:22.440Z,67.60
2018-09-25T05:06:55.597Z,67.60
2018-09-25T05:09:28.817Z,67.90
2018-09-25T05:12:01.985Z,68.10
2018-09-25T05:14:35.212Z,69.40
2018-09-25T05:17:08.397Z,69.20
2018-09-25T05:19:41.517Z,69.70
2018-09-25T05:22:14.585Z,69.80
2018-09-25T05:24:47.752Z,69.70
2018-09-25T05:27:20.907Z,69.60
2018-09-25T05:29:54.074Z,69.30
2018-09-25T05:32:27.256Z,69.00
2018-09-25T05:35:01.505Z,68.70
2018-09-25T05:37:34.777Z,68.70
2018-09-25T05:40:07.946Z,68.60
2018-09-25T05:42:41.101Z,68.60
2018-09-25T05:45:14.455Z,68.40
2018-09-25T05:47:47.617Z,68.00
2018-09-25T05:50:21.789Z,67.70
2018-09-25T05:52:55.013Z,67.90
2018-09-25T05:55:28.316Z,67.10
2018-09-25T05:58:01.529Z,66.90
2018-09-25T06:00:34.681Z,66.10
2018-09-25T06:03:07.829Z,66.40
2018-09-25T06:05:40.833Z,66.60
2018-09-25T06:08:13.981Z,66.30
2018-09-25T06:10:47.281Z,66.50
2018-09-25T06:13:20.451Z,66.40
2018-09-25T06:15:53.557Z,65.70
2018-09-25T06:18:26.717Z,65.40
2018-09-25T06:20:59.963Z,65.40
2018-09-25T06:23:33.280Z,65.40
2018-09-25T06:26:07.432Z,64.40
2018-09-25T06:28:40.526Z,65.00
2018-09-25T06:31:13.893Z,65.10
2018-09-25T06:33:55.090Z,64.00
2018-09-25T06:36:29.201Z,63.40
2018-09-25T06:39:02.439Z,63.50
2018-09-25T06:41:35.461Z,62.50
2018-09-25T06:44:08.541Z,63.20
2018-09-25T06:46:41.735Z,62.50
2018-09-25T06:49:14.903Z,62.90
2018-09-25T06:51:47.993Z,63.10
2018-09-25T06:54:21.182Z,61.80
2018-09-25T06:56:55.393Z,61.60
2018-09-25T06:59:28.561Z,62.10
2018-09-25T07:02:01.784Z,61.20
2018-09-25T07:04:34.984Z,60.60
2018-09-25T07:07:08.220Z,59.70
2018-09-25T07:09:41.407Z,60.40
2018-09-25T07:12:14.513Z,59.80
2018-09-25T07:14:47.724Z,59.10
2018-09-25T07:17:20.936Z,59.00
2018-09-25T07:19:54.188Z,58.30
2018-09-25T07:22:27.441Z,58.50
2018-09-25T07:25:00.697Z,59.50
2018-09-25T07:27:33.901Z,57.70
2018-09-25T07:30:07.008Z,58.10
2018-09-25T07:32:41.224Z,57.20
2018-09-25T07:35:14.364Z,57.00
2018-09-25T07:37:47.597Z,56.90
2018-09-25T07:40:20.825Z,56.90
2018-09-25T07:42:54.160Z,56.40
2018-09-25T07:45:27.421Z,56.90
2018-09-25T07:48:00.685Z,56.40
2018-09-25T07:50:34.716Z,56.90
2018-09-25T07:53:08.073Z,56.40
2018-09-25T07:55:41.257Z,56.00
2018-09-25T07:58:14.518Z,55.20
2018-09-25T08:00:47.700Z,56.20
2018-09-25T08:03:20.912Z,56.40
2018-09-25T08:05:54.138Z,55.30
2018-09-25T08:08:27.248Z,54.90
2018-09-25T08:11:00.440Z,54.90
2018-09-25T08:13:33.612Z,55.00
2018-09-25T08:16:06.887Z,54.90
2018-09-25T08:18:40.169Z,54.50
2018-09-25T08:21:13.249Z,55.00
2018-09-25T08:23:46.481Z,55.20
2018-09-25T08:26:19.664Z,55.00
2018-09-25T08:28:52.825Z,55.30
2018-09-25T08:31:26.030Z,54.90
2018-09-25T08:34:00.256Z,55.20
2018-09-25T08:36:33.397Z,56.10
2018-09-25T08:39:06.763Z,55.90
2018-09-25T08:41:39.946Z,55.70
2018-09-25T08:44:13.104Z,55.70
2018-09-25T08:46:47.376Z,55.20
2018-09-25T08:49:20.504Z,53.70
2018-09-25T08:51:53.861Z,54.00
2018-09-25T08:54:27.025Z,54.20
2018-09-25T08:57:00.189Z,55.40
2018-09-25T08:59:34.448Z,53.70
2018-09-25T09:02:07.737Z,52.10
2018-09-25T09:04:40.961Z,54.40
2018-09-25T09:07:14.096Z,53.50
2018-09-25T09:09:47.224Z,54.10
2018-09-25T09:12:20.401Z,53.20
2018-09-25T09:14:53.453Z,52.20
2018-09-25T09:17:26.684Z,54.20
2018-09-25T09:19:59.897Z,52.20
2018-09-25T09:22:33.028Z,53.20
2018-09-25T09:25:06.272Z,52.80
2018-09-25T09:27:39.533Z,53.40
2018-09-25T09:30:12.713Z,52.20
2018-09-25T09:32:45.892Z,51.10
2018-09-25T09:35:19.022Z,51.30
2018-09-25T09:37:52.226Z,52.00
2018-09-25T09:40:25.476Z,52.00
2018-09-25T09:42:58.703Z,50.60
2018-09-25T09:45:31.992Z,50.90
2018-09-25T09:48:05.216Z,49.30
2018-09-25T09:50:38.533Z,50.40
2018-09-25T09:53:11.981Z,50.30
2018-09-25T09:55:45.297Z,50.80
2018-09-25T09:58:18.525Z,50.30
2018-09-25T10:00:51.956Z,50.50
2018-09-25T10:03:24.973Z,50.50
2018-09-25T10:05:58.153Z,49.50
2018-09-25T10:08:32.470Z,50.20
2018-09-25T10:11:05.617Z,50.50
2018-09-25T10:13:39.854Z,49.80
2018-09-25T10:16:13.076Z,48.60
2018-09-25T10:18:46.276Z,48.40
2018-09-25T10:21:19.535Z,48.80
2018-09-25T10:23:52.622Z,46.70
2018-09-25T10:26:25.842Z,47.20
2018-09-25T10:28:59.018Z,52.10
2018-09-25T10:31:32.089Z,50.70
2018-09-25T10:34:05.257Z,48.20
2018-09-25T10:36:39.526Z,47.70
2018-09-25T10:39:13.957Z,45.40
2018-09-25T10:41:47.205Z,48.10
2018-09-25T10:44:20.761Z,46.60
2018-09-25T10:46:53.877Z,47.70
2018-09-25T10:49:27.132Z,46.60
2018-09-25T10:52:00.393Z,45.80
2018-09-25T10:54:33.624Z,46.00
2018-09-25T10:57:06.629Z,45.40
2018-09-25T10:59:39.983Z,43.70
2018-09-25T11:02:14.175Z,45.50
2018-09-25T11:04:47.377Z,44.10
2018-09-25T11:07:20.557Z,44.70
2018-09-25T11:09:53.786Z,44.60
2018-09-25T11:12:26.950Z,44.40
2018-09-25T11:15:00.081Z,45.60
2018-09-25T11:17:34.408Z,44.30
2018-09-25T11:20:07.645Z,45.20
2018-09-25T11:22:40.854Z,46.60
2018-09-25T11:25:13.979Z,46.40
2018-09-25T11:27:47.257Z,45.40
2018-09-25T11:30:20.356Z,44.40
2018-09-25T11:32:53.631Z,45.20
2018-09-25T11:35:26.837Z,44.10
2018-09-25T11:37:59.929Z,44.90
2018-09-25T11:40:33.329Z,43.50
2018-09-25T11:43:06.576Z,43.90
2018-09-25T11:45:39.801Z,43.70
2018-09-25T11:48:12.917Z,43.70
2018-09-25T11:50:46.145Z,43.20
2018-09-25T11:53:19.351Z,40.70
2018-09-25T11:55:52.629Z,41.60
2018-09-25T11:58:25.838Z,41.70
2018-09-25T12:08:16.196Z,42.30
2018-09-25T12:10:49.440Z,43.30
2018-09-25T12:13:22.549Z,43.10
2018-09-25T12:15:55.773Z,42.10
2018-09-25T12:18:29.028Z,44.50
2018-09-25T12:21:02.278Z,43.10
2018-09-25T12:23:35.483Z,42.80
2018-09-25T12:26:08.724Z,42.30
2018-09-25T12:28:41.938Z,42.60
2018-09-25T12:31:15.277Z,42.70
2018-09-25T12:33:49.469Z,43.20
2018-09-25T12:36:22.698Z,43.00
2018-09-25T12:38:55.938Z,43.70
2018-09-25T12:41:29.188Z,42.80
2018-09-25T12:44:02.420Z,42.20
2018-09-25T12:46:35.540Z,41.50
2018-09-25T12:49:08.895Z,41.30
2018-09-25T12:51:42.057Z,41.30
2018-09-25T12:54:15.285Z,42.90
2018-09-25T12:56:48.437Z,44.20
2018-09-25T12:59:21.668Z,42.20
2018-09-25T13:01:55.836Z,38.10
2018-09-25T13:04:29.068Z,39.10
2018-09-25T13:07:02.187Z,39.20
2018-09-25T13:09:35.375Z,39.40
2018-09-25T13:12:08.553Z,39.90
2018-09-25T13:14:41.702Z,39.60
2018-09-25T13:17:14.936Z,39.30
2018-09-25T13:19:48.230Z,40.00
2018-09-25T13:22:21.564Z,39.20
2018-09-25T13:24:54.773Z,37.30
2018-09-25T13:27:28.007Z,37.00
2018-09-25T13:30:01.158Z,37.70
2018-09-25T13:32:34.388Z,34.50
2018-09-25T13:35:07.541Z,34.70
2018-09-25T13:37:40.792Z,32.00
2018-09-25T13:40:13.924Z,33.50
2018-09-25T13:42:47.201Z,32.90
2018-09-25T13:45:20.512Z,31.40
2018-09-25T13:47:53.763Z,30.10
2018-09-25T13:50:27.968Z,30.80
2018-09-25T13:53:01.125Z,30.40
2018-09-25T13:55:34.366Z,29.30
2018-09-25T13:58:07.610Z,28.20
2018-09-25T14:00:40.808Z,28.90
2018-09-25T14:03:14.045Z,29.40
2018-09-25T14:05:47.321Z,30.60
2018-09-25T14:08:20.501Z,29.20
2018-09-25T14:10:54.709Z,30.00
2018-09-25T14:13:28.940Z,28.80
2018-09-25T14:16:02.131Z,27.90
2018-09-25T14:18:35.276Z,28.70
2018-09-25T14:21:08.524Z,27.30
2018-09-25T14:23:41.652Z,26.10
2018-09-25T14:26:14.913Z,25.50
2018-09-25T14:28:48.057Z,26.70
2018-09-25T14:31:21.293Z,28.30
2018-09-25T14:33:54.286Z,30.00
2018-09-25T14:36:27.326Z,31.40
2018-09-25T14:39:00.652Z,32.50
2018-09-25T14:41:33.837Z,33.50
2018-09-25T14:44:07.161Z,34.20
2018-09-25T14:46:40.277Z,34.00
2018-09-25T14:49:13.412Z,35.50
2018-09-25T14:51:46.596Z,36.30
2018-09-25T14:54:19.954Z,34.30
2018-09-25T14:56:53.107Z,31.60
2018-09-25T14:59:26.283Z,28.90
2018-09-25T15:01:59.479Z,28.60
2018-09-25T15:04:32.835Z,26.80
2018-09-25T15:07:05.973Z,26.60
2018-09-25T15:09:39.068Z,27.00
2018-09-25T15:12:12.101Z,28.40
2018-09-25T15:14:45.328Z,29.60
2018-09-25T15:17:18.485Z,30.10
2018-09-25T15:19:51.713Z,32.90
2018-09-25T15:22:24.817Z,32.40
2018-09-25T15:24:58.021Z,33.10
2018-09-25T15:27:31.236Z,33.50
2018-09-25T15:30:04.454Z,34.00
2018-09-25T15:32:37.705Z,34.50
2018-09-25T15:35:11.087Z,36.10
2018-09-25T15:37:44.225Z,37.00
2018-09-25T15:40:17.413Z,37.50
2018-09-25T15:42:50.481Z,38.20
2018-09-25T15:45:23.744Z,39.00
2018-09-25T15:47:57.055Z,40.10
2018-09-25T15:50:30.186Z,40.80
2018-09-25T15:53:03.431Z,41.90
2018-09-25T15:55:36.695Z,42.50
2018-09-25T15:58:10.075Z,42.40
2018-09-25T16:00:43.130Z,43.00
2018-09-25T16:03:16.477Z,44.60
2018-09-25T16:05:49.673Z,44.80
2018-09-25T16:08:22.961Z,44.50
2018-09-25T16:10:56.121Z,45.90
2018-09-25T16:13:29.353Z,45.70
2018-09-25T16:16:02.397Z,46.30
2018-09-25T16:18:35.500Z,46.20
2018-09-25T16:21:08.750Z,45.70
2018-09-25T16:23:41.880Z,46.90
2018-09-25T16:26:15.116Z,48.30
2018-09-25T16:28:48.370Z,49.20
2018-09-25T16:31:21.598Z,49.20
2018-09-25T16:33:55.776Z,49.80
2018-09-25T16:36:28.958Z,50.40
2018-09-25T16:39:02.176Z,50.00
2018-09-25T16:41:35.273Z,51.30
2018-09-25T16:44:08.513Z,51.20
2018-09-25T16:46:42.656Z,51.00
2018-09-25T16:49:17.020Z,51.60
2018-09-25T16:51:50.233Z,52.50
2018-09-25T16:54:23.537Z,52.20
2018-09-25T16:56:56.793Z,52.30
2018-09-25T16:59:30.024Z,52.80
2018-09-25T17:02:03.153Z,52.80
2018-09-25T17:04:37.354Z,53.10
2018-09-25T17:07:11.769Z,53.30
2018-09-25T17:09:44.865Z,54.20
2018-09-25T17:12:19.152Z,54.10
2018-09-25T17:14:52.286Z,54.60
2018-09-25T17:17:25.598Z,54.30
2018-09-25T17:19:58.790Z,54.00
2018-09-25T17:22:31.987Z,54.60
2018-09-25T17:25:05.081Z,54.90
2018-09-25T17:27:38.341Z,55.30
2018-09-25T17:30:11.760Z,55.50
2018-09-25T17:32:44.837Z,55.70
2018-09-25T17:35:18.168Z,55.10
2018-09-25T17:37:51.295Z,54.80
2018-09-25T17:40:24.664Z,55.10
2018-09-25T17:42:57.791Z,55.30
2018-09-25T17:45:30.942Z,55.90
2018-09-25T17:48:04.140Z,56.20
2018-09-25T17:50:37.125Z,55.80
2018-09-25T17:53:10.320Z,55.80
2018-09-25T17:55:43.597Z,55.70
2018-09-25T17:58:16.773Z,54.90
2018-09-25T18:00:51.065Z,54.00
2018-09-25T18:03:24.201Z,53.10
2018-09-25T18:05:57.275Z,53.20
2018-09-25T18:08:30.875Z,53.90
2018-09-25T18:11:03.949Z,54.40
2018-09-25T18:13:38.205Z,54.80
2018-09-25T18:16:11.260Z,54.70
2018-09-25T18:18:44.441Z,54.50
2018-09-25T18:21:17.527Z,54.70
2018-09-25T18:23:50.690Z,55.00
2018-09-25T18:26:23.893Z,55.40
2018-09-25T18:28:57.135Z,55.80
2018-09-25T18:31:30.381Z,55.70
2018-09-25T18:34:04.544Z,55.80
2018-09-25T18:36:37.809Z,56.20
2018-09-25T18:39:12.045Z,56.50
2018-09-25T18:41:45.360Z,56.60
2018-09-25T18:44:18.517Z,57.10
2018-09-25T18:46:51.724Z,57.40
2018-09-25T18:49:24.921Z,57.20
2018-09-25T18:51:58.064Z,57.30
2018-09-25T18:54:31.429Z,57.50
2018-09-25T18:57:04.550Z,57.50
2018-09-25T18:59:37.862Z,56.90
2018-09-25T19:02:27.633Z,56.30
2018-09-25T19:22:46.069Z,56.20
